sensor_id;sensor_type;location;lat;lon;timestamp;P1;durP1;ratioP1;P2;durP2;ratioP2
25915;SDS011;13719;48.188;11.618;2023-02-15T00:00:08;1.48;;;0.90;;
25915;SDS011;13719;48.188;11.618;2023-02-15T00:02:37;0.73;;;0.73;;
25915;SDS011;13719;48.188;11.618;2023-02-15T00:05:07;5.70;;;1.05;;
25915;SDS011;13719;48.188;11.618;2023-02-15T00:07:35;0.82;;;0.70;;
25915;SDS011;13719;48.188;11.618;2023-02-15T00:10:04;0.47;;;0.47;;
25915;SDS011;13719;48.188;11.618;2023-02-15T00:12:33;1.08;;;0.98;;
25915;SDS011;13719;48.188;11.618;2023-02-15T00:15:01;2.15;;;1.27;;
25915;SDS011;13719;48.188;11.618;2023-02-15T00:17:30;2.03;;;1.60;;
25915;SDS011;13719;48.188;11.618;2023-02-15T00:19:58;1.65;;;1.55;;
25915;SDS011;13719;48.188;11.618;2023-02-15T00:22:28;0.63;;;0.63;;
25915;SDS011;13719;48.188;11.618;2023-02-15T00:24:56;2.05;;;0.85;;
25915;SDS011;13719;48.188;11.618;2023-02-15T00:27:24;4.28;;;1.38;;
25915;SDS011;13719;48.188;11.618;2023-02-15T00:29:52;1.08;;;1.08;;
25915;SDS011;13719;48.188;11.618;2023-02-15T00:32:21;0.82;;;0.82;;
25915;SDS011;13719;48.188;11.618;2023-02-15T00:34:49;1.15;;;0.80;;
25915;SDS011;13719;48.188;11.618;2023-02-15T00:37:17;0.30;;;0.30;;
25915;SDS011;13719;48.188;11.618;2023-02-15T00:39:47;0.40;;;0.40;;
25915;SDS011;13719;48.188;11.618;2023-02-15T00:42:15;1.45;;;0.70;;
25915;SDS011;13719;48.188;11.618;2023-02-15T00:44:43;1.83;;;1.73;;
25915;SDS011;13719;48.188;11.618;2023-02-15T00:47:11;3.17;;;1.98;;
25915;SDS011;13719;48.188;11.618;2023-02-15T00:49:40;2.20;;;0.65;;
25915;SDS011;13719;48.188;11.618;2023-02-15T00:52:08;1.95;;;1.83;;
25915;SDS011;13719;48.188;11.618;2023-02-15T00:54:36;1.17;;;0.77;;
25915;SDS011;13719;48.188;11.618;2023-02-15T00:57:07;5.80;;;0.95;;
25915;SDS011;13719;48.188;11.618;2023-02-15T00:59:35;0.93;;;0.68;;
25915;SDS011;13719;48.188;11.618;2023-02-15T01:02:03;0.40;;;0.40;;
25915;SDS011;13719;48.188;11.618;2023-02-15T01:04:32;0.52;;;0.52;;
25915;SDS011;13719;48.188;11.618;2023-02-15T01:07:00;1.23;;;0.68;;
25915;SDS011;13719;48.188;11.618;2023-02-15T01:09:29;0.98;;;0.98;;
25915;SDS011;13719;48.188;11.618;2023-02-15T01:11:58;0.28;;;0.28;;
25915;SDS011;13719;48.188;11.618;2023-02-15T01:14:27;0.30;;;0.30;;
25915;SDS011;13719;48.188;11.618;2023-02-15T01:16:56;0.70;;;0.70;;
25915;SDS011;13719;48.188;11.618;2023-02-15T01:19:24;0.93;;;0.93;;
25915;SDS011;13719;48.188;11.618;2023-02-15T01:21:52;3.47;;;0.85;;
25915;SDS011;13719;48.188;11.618;2023-02-15T01:24:20;3.45;;;1.80;;
25915;SDS011;13719;48.188;11.618;2023-02-15T01:26:49;0.68;;;0.60;;
25915;SDS011;13719;48.188;11.618;2023-02-15T01:29:17;2.67;;;1.25;;
25915;SDS011;13719;48.188;11.618;2023-02-15T01:31:47;0.47;;;0.47;;
25915;SDS011;13719;48.188;11.618;2023-02-15T01:34:15;0.63;;;0.40;;
25915;SDS011;13719;48.188;11.618;2023-02-15T01:36:43;0.68;;;0.50;;
25915;SDS011;13719;48.188;11.618;2023-02-15T01:39:12;1.63;;;1.35;;
25915;SDS011;13719;48.188;11.618;2023-02-15T01:41:41;1.42;;;1.27;;
25915;SDS011;13719;48.188;11.618;2023-02-15T01:46:57;0.32;;;0.32;;
25915;SDS011;13719;48.188;11.618;2023-02-15T01:49:25;0.30;;;0.30;;
25915;SDS011;13719;48.188;11.618;2023-02-15T01:51:54;0.70;;;0.70;;
25915;SDS011;13719;48.188;11.618;2023-02-15T01:54:23;0.40;;;0.40;;
25915;SDS011;13719;48.188;11.618;2023-02-15T01:56:53;1.65;;;1.45;;
25915;SDS011;13719;48.188;11.618;2023-02-15T01:59:23;1.13;;;0.77;;
25915;SDS011;13719;48.188;11.618;2023-02-15T02:01:52;1.23;;;0.98;;
25915;SDS011;13719;48.188;11.618;2023-02-15T02:04:24;1.55;;;0.85;;
25915;SDS011;13719;48.188;11.618;2023-02-15T02:06:53;0.65;;;0.65;;
25915;SDS011;13719;48.188;11.618;2023-02-15T02:09:22;0.30;;;0.30;;
25915;SDS011;13719;48.188;11.618;2023-02-15T02:11:50;0.40;;;0.40;;
25915;SDS011;13719;48.188;11.618;2023-02-15T02:14:20;0.85;;;0.75;;
25915;SDS011;13719;48.188;11.618;2023-02-15T02:16:51;1.02;;;1.00;;
25915;SDS011;13719;48.188;11.618;2023-02-15T02:22:16;0.43;;;0.43;;
25915;SDS011;13719;48.188;11.618;2023-02-15T02:24:57;0.60;;;0.60;;
25915;SDS011;13719;48.188;11.618;2023-02-15T02:27:29;0.85;;;0.85;;
25915;SDS011;13719;48.188;11.618;2023-02-15T02:35:24;0.38;;;0.38;;
25915;SDS011;13719;48.188;11.618;2023-02-15T02:37:59;0.85;;;0.85;;
25915;SDS011;13719;48.188;11.618;2023-02-15T02:40:30;1.48;;;1.38;;
25915;SDS011;13719;48.188;11.618;2023-02-15T02:43:01;0.50;;;0.50;;
25915;SDS011;13719;48.188;11.618;2023-02-15T02:45:31;1.55;;;1.45;;
25915;SDS011;13719;48.188;11.618;2023-02-15T02:48:02;2.47;;;1.52;;
25915;SDS011;13719;48.188;11.618;2023-02-15T02:50:33;1.88;;;1.20;;
25915;SDS011;13719;48.188;11.618;2023-02-15T02:53:01;0.80;;;0.60;;
25915;SDS011;13719;48.188;11.618;2023-02-15T02:55:30;0.50;;;0.50;;
25915;SDS011;13719;48.188;11.618;2023-02-15T02:58:00;0.35;;;0.35;;
25915;SDS011;13719;48.188;11.618;2023-02-15T03:00:32;0.82;;;0.75;;
25915;SDS011;13719;48.188;11.618;2023-02-15T03:03:04;1.93;;;0.73;;
25915;SDS011;13719;48.188;11.618;2023-02-15T03:05:36;0.55;;;0.50;;
25915;SDS011;13719;48.188;11.618;2023-02-15T03:08:06;0.47;;;0.47;;
25915;SDS011;13719;48.188;11.618;2023-02-15T03:10:36;0.65;;;0.65;;
25915;SDS011;13719;48.188;11.618;2023-02-15T03:13:05;3.00;;;1.02;;
25915;SDS011;13719;48.188;11.618;2023-02-15T03:15:35;0.90;;;0.85;;
25915;SDS011;13719;48.188;11.618;2023-02-15T03:18:23;1.08;;;0.60;;
25915;SDS011;13719;48.188;11.618;2023-02-15T03:20:54;0.88;;;0.88;;
25915;SDS011;13719;48.188;11.618;2023-02-15T03:23:23;2.83;;;0.50;;
25915;SDS011;13719;48.188;11.618;2023-02-15T03:25:55;0.70;;;0.70;;
25915;SDS011;13719;48.188;11.618;2023-02-15T03:28:25;0.77;;;0.77;;
25915;SDS011;13719;48.188;11.618;2023-02-15T03:30:55;0.85;;;0.85;;
25915;SDS011;13719;48.188;11.618;2023-02-15T03:33:27;2.05;;;1.08;;
25915;SDS011;13719;48.188;11.618;2023-02-15T03:35:59;0.60;;;0.60;;
25915;SDS011;13719;48.188;11.618;2023-02-15T03:38:30;0.70;;;0.70;;
25915;SDS011;13719;48.188;11.618;2023-02-15T03:41:01;1.50;;;1.42;;
25915;SDS011;13719;48.188;11.618;2023-02-15T03:43:38;1.63;;;1.52;;
25915;SDS011;13719;48.188;11.618;2023-02-15T03:46:08;0.70;;;0.43;;
25915;SDS011;13719;48.188;11.618;2023-02-15T03:48:39;0.60;;;0.57;;
25915;SDS011;13719;48.188;11.618;2023-02-15T03:51:12;5.90;;;0.82;;
25915;SDS011;13719;48.188;11.618;2023-02-15T03:54:01;0.52;;;0.45;;
25915;SDS011;13719;48.188;11.618;2023-02-15T03:56:29;0.45;;;0.45;;
25915;SDS011;13719;48.188;11.618;2023-02-15T03:58:57;0.60;;;0.60;;
25915;SDS011;13719;48.188;11.618;2023-02-15T04:01:44;0.60;;;0.60;;
25915;SDS011;13719;48.188;11.618;2023-02-15T04:04:27;1.23;;;1.17;;
25915;SDS011;13719;48.188;11.618;2023-02-15T04:06:57;1.77;;;1.67;;
25915;SDS011;13719;48.188;11.618;2023-02-15T04:09:26;1.00;;;0.73;;
25915;SDS011;13719;48.188;11.618;2023-02-15T04:12:12;0.50;;;0.50;;
25915;SDS011;13719;48.188;11.618;2023-02-15T04:14:40;1.02;;;0.50;;
25915;SDS011;13719;48.188;11.618;2023-02-15T04:17:26;0.73;;;0.73;;
25915;SDS011;13719;48.188;11.618;2023-02-15T04:19:54;0.70;;;0.68;;
25915;SDS011;13719;48.188;11.618;2023-02-15T04:22:42;0.57;;;0.57;;
25915;SDS011;13719;48.188;11.618;2023-02-15T04:25:27;0.35;;;0.35;;
25915;SDS011;13719;48.188;11.618;2023-02-15T04:27:56;1.95;;;0.60;;
25915;SDS011;13719;48.188;11.618;2023-02-15T04:30:24;0.57;;;0.57;;
25915;SDS011;13719;48.188;11.618;2023-02-15T04:32:54;2.28;;;0.73;;
25915;SDS011;13719;48.188;11.618;2023-02-15T04:35:24;0.80;;;0.70;;
25915;SDS011;13719;48.188;11.618;2023-02-15T04:37:54;0.52;;;0.52;;
25915;SDS011;13719;48.188;11.618;2023-02-15T04:40:22;2.08;;;1.50;;
25915;SDS011;13719;48.188;11.618;2023-02-15T04:42:51;0.85;;;0.85;;
25915;SDS011;13719;48.188;11.618;2023-02-15T04:45:19;1.10;;;0.65;;
25915;SDS011;13719;48.188;11.618;2023-02-15T04:47:47;1.90;;;1.05;;
25915;SDS011;13719;48.188;11.618;2023-02-15T04:50:16;1.13;;;0.90;;
25915;SDS011;13719;48.188;11.618;2023-02-15T04:52:44;0.82;;;0.63;;
25915;SDS011;13719;48.188;11.618;2023-02-15T04:55:14;0.77;;;0.77;;
25915;SDS011;13719;48.188;11.618;2023-02-15T04:57:42;1.52;;;1.42;;
25915;SDS011;13719;48.188;11.618;2023-02-15T05:00:11;0.85;;;0.82;;
25915;SDS011;13719;48.188;11.618;2023-02-15T05:02:39;0.93;;;0.60;;
25915;SDS011;13719;48.188;11.618;2023-02-15T05:05:07;0.75;;;0.60;;
25915;SDS011;13719;48.188;11.618;2023-02-15T05:07:39;1.33;;;1.23;;
25915;SDS011;13719;48.188;11.618;2023-02-15T05:10:07;1.10;;;0.68;;
25915;SDS011;13719;48.188;11.618;2023-02-15T05:12:37;0.30;;;0.30;;
25915;SDS011;13719;48.188;11.618;2023-02-15T05:15:06;1.40;;;1.23;;
25915;SDS011;13719;48.188;11.618;2023-02-15T05:17:34;0.30;;;0.30;;
25915;SDS011;13719;48.188;11.618;2023-02-15T05:20:03;4.03;;;0.70;;
25915;SDS011;13719;48.188;11.618;2023-02-15T05:22:31;0.65;;;0.65;;
25915;SDS011;13719;48.188;11.618;2023-02-15T05:24:59;0.30;;;0.30;;
25915;SDS011;13719;48.188;11.618;2023-02-15T05:27:52;0.95;;;0.95;;
25915;SDS011;13719;48.188;11.618;2023-02-15T05:30:38;0.90;;;0.70;;
25915;SDS011;13719;48.188;11.618;2023-02-15T05:33:07;0.60;;;0.60;;
25915;SDS011;13719;48.188;11.618;2023-02-15T05:35:35;0.73;;;0.73;;
25915;SDS011;13719;48.188;11.618;2023-02-15T05:38:03;0.70;;;0.70;;
25915;SDS011;13719;48.188;11.618;2023-02-15T05:40:32;0.70;;;0.70;;
25915;SDS011;13719;48.188;11.618;2023-02-15T05:43:01;0.95;;;0.95;;
25915;SDS011;13719;48.188;11.618;2023-02-15T05:45:29;0.50;;;0.50;;
25915;SDS011;13719;48.188;11.618;2023-02-15T05:47:58;1.63;;;1.52;;
25915;SDS011;13719;48.188;11.618;2023-02-15T05:50:26;0.32;;;0.32;;
25915;SDS011;13719;48.188;11.618;2023-02-15T05:52:54;1.27;;;1.13;;
25915;SDS011;13719;48.188;11.618;2023-02-15T05:55:23;0.70;;;0.70;;
25915;SDS011;13719;48.188;11.618;2023-02-15T05:57:51;1.38;;;0.70;;
25915;SDS011;13719;48.188;11.618;2023-02-15T06:00:21;1.42;;;1.33;;
25915;SDS011;13719;48.188;11.618;2023-02-15T06:02:49;0.50;;;0.50;;
25915;SDS011;13719;48.188;11.618;2023-02-15T06:05:17;0.55;;;0.55;;
25915;SDS011;13719;48.188;11.618;2023-02-15T06:07:46;4.30;;;1.38;;
25915;SDS011;13719;48.188;11.618;2023-02-15T06:10:14;1.38;;;1.00;;
25915;SDS011;13719;48.188;11.618;2023-02-15T06:12:43;0.40;;;0.40;;
25915;SDS011;13719;48.188;11.618;2023-02-15T06:15:11;1.10;;;1.10;;
25915;SDS011;13719;48.188;11.618;2023-02-15T06:17:42;0.60;;;0.60;;
25915;SDS011;13719;48.188;11.618;2023-02-15T06:20:10;1.55;;;1.08;;
25915;SDS011;13719;48.188;11.618;2023-02-15T06:22:39;1.67;;;1.30;;
25915;SDS011;13719;48.188;11.618;2023-02-15T06:25:07;0.60;;;0.57;;
25915;SDS011;13719;48.188;11.618;2023-02-15T06:27:37;0.75;;;0.75;;
25915;SDS011;13719;48.188;11.618;2023-02-15T06:30:09;0.50;;;0.50;;
25915;SDS011;13719;48.188;11.618;2023-02-15T06:32:38;3.42;;;0.77;;
25915;SDS011;13719;48.188;11.618;2023-02-15T06:35:08;0.95;;;0.95;;
25915;SDS011;13719;48.188;11.618;2023-02-15T06:37:37;1.52;;;0.90;;
25915;SDS011;13719;48.188;11.618;2023-02-15T06:40:06;3.60;;;1.50;;
25915;SDS011;13719;48.188;11.618;2023-02-15T06:42:35;2.78;;;1.67;;
25915;SDS011;13719;48.188;11.618;2023-02-15T06:45:04;0.73;;;0.73;;
25915;SDS011;13719;48.188;11.618;2023-02-15T06:47:33;1.55;;;1.25;;
25915;SDS011;13719;48.188;11.618;2023-02-15T06:50:02;1.33;;;1.23;;
25915;SDS011;13719;48.188;11.618;2023-02-15T06:52:32;0.55;;;0.55;;
25915;SDS011;13719;48.188;11.618;2023-02-15T06:55:00;0.45;;;0.45;;
25915;SDS011;13719;48.188;11.618;2023-02-15T06:57:28;1.15;;;1.05;;
25915;SDS011;13719;48.188;11.618;2023-02-15T06:59:58;0.70;;;0.70;;
25915;SDS011;13719;48.188;11.618;2023-02-15T07:02:27;0.70;;;0.70;;
25915;SDS011;13719;48.188;11.618;2023-02-15T07:04:55;1.55;;;0.52;;
25915;SDS011;13719;48.188;11.618;2023-02-15T07:07:24;2.85;;;0.40;;
25915;SDS011;13719;48.188;11.618;2023-02-15T07:09:53;1.50;;;0.95;;
25915;SDS011;13719;48.188;11.618;2023-02-15T07:12:22;0.63;;;0.60;;
25915;SDS011;13719;48.188;11.618;2023-02-15T07:15:09;0.75;;;0.75;;
25915;SDS011;13719;48.188;11.618;2023-02-15T07:17:37;0.82;;;0.82;;
25915;SDS011;13719;48.188;11.618;2023-02-15T07:20:07;1.27;;;1.17;;
25915;SDS011;13719;48.188;11.618;2023-02-15T07:22:36;0.30;;;0.30;;
25915;SDS011;13719;48.188;11.618;2023-02-15T07:25:07;2.95;;;0.93;;
25915;SDS011;13719;48.188;11.618;2023-02-15T07:27:36;0.88;;;0.88;;
25915;SDS011;13719;48.188;11.618;2023-02-15T07:30:05;0.40;;;0.40;;
25915;SDS011;13719;48.188;11.618;2023-02-15T07:32:33;1.25;;;1.17;;
25915;SDS011;13719;48.188;11.618;2023-02-15T07:35:02;2.13;;;1.63;;
25915;SDS011;13719;48.188;11.618;2023-02-15T07:37:30;0.50;;;0.43;;
25915;SDS011;13719;48.188;11.618;2023-02-15T07:39:58;3.63;;;0.95;;
25915;SDS011;13719;48.188;11.618;2023-02-15T07:42:28;0.57;;;0.57;;
25915;SDS011;13719;48.188;11.618;2023-02-15T07:44:58;0.70;;;0.70;;
25915;SDS011;13719;48.188;11.618;2023-02-15T07:47:26;0.55;;;0.55;;
25915;SDS011;13719;48.188;11.618;2023-02-15T07:49:54;0.50;;;0.50;;
25915;SDS011;13719;48.188;11.618;2023-02-15T07:52:23;1.30;;;1.20;;
25915;SDS011;13719;48.188;11.618;2023-02-15T07:54:51;0.45;;;0.45;;
25915;SDS011;13719;48.188;11.618;2023-02-15T07:57:19;0.70;;;0.70;;
25915;SDS011;13719;48.188;11.618;2023-02-15T07:59:49;1.75;;;0.60;;
25915;SDS011;13719;48.188;11.618;2023-02-15T08:02:17;1.05;;;0.90;;
25915;SDS011;13719;48.188;11.618;2023-02-15T08:04:46;1.30;;;1.30;;
25915;SDS011;13719;48.188;11.618;2023-02-15T08:07:14;0.98;;;0.70;;
25915;SDS011;13719;48.188;11.618;2023-02-15T08:09:42;1.70;;;1.38;;
25915;SDS011;13719;48.188;11.618;2023-02-15T08:12:11;1.58;;;0.63;;
25915;SDS011;13719;48.188;11.618;2023-02-15T08:14:39;1.15;;;0.98;;
25915;SDS011;13719;48.188;11.618;2023-02-15T08:17:09;0.88;;;0.80;;
25915;SDS011;13719;48.188;11.618;2023-02-15T08:19:37;1.73;;;1.33;;
25915;SDS011;13719;48.188;11.618;2023-02-15T08:22:06;0.90;;;0.90;;
25915;SDS011;13719;48.188;11.618;2023-02-15T08:24:36;2.28;;;1.88;;
25915;SDS011;13719;48.188;11.618;2023-02-15T08:27:05;3.95;;;1.38;;
25915;SDS011;13719;48.188;11.618;2023-02-15T08:29:34;1.17;;;1.10;;
25915;SDS011;13719;48.188;11.618;2023-02-15T08:32:03;1.63;;;1.35;;
25915;SDS011;13719;48.188;11.618;2023-02-15T08:34:35;1.58;;;1.48;;
25915;SDS011;13719;48.188;11.618;2023-02-15T08:37:03;1.00;;;0.52;;
25915;SDS011;13719;48.188;11.618;2023-02-15T08:39:33;3.30;;;0.93;;
25915;SDS011;13719;48.188;11.618;2023-02-15T08:42:01;0.68;;;0.50;;
25915;SDS011;13719;48.188;11.618;2023-02-15T08:44:30;1.15;;;1.00;;
25915;SDS011;13719;48.188;11.618;2023-02-15T08:46:58;1.92;;;0.90;;
25915;SDS011;13719;48.188;11.618;2023-02-15T08:49:30;0.85;;;0.85;;
25915;SDS011;13719;48.188;11.618;2023-02-15T08:51:59;2.85;;;1.40;;
25915;SDS011;13719;48.188;11.618;2023-02-15T08:54:28;1.70;;;1.33;;
25915;SDS011;13719;48.188;11.618;2023-02-15T08:56:56;3.25;;;1.48;;
25915;SDS011;13719;48.188;11.618;2023-02-15T08:59:25;1.33;;;0.95;;
25915;SDS011;13719;48.188;11.618;2023-02-15T09:01:54;3.22;;;1.83;;
25915;SDS011;13719;48.188;11.618;2023-02-15T09:04:22;1.85;;;1.75;;
25915;SDS011;13719;48.188;11.618;2023-02-15T09:06:51;1.48;;;1.45;;
25915;SDS011;13719;48.188;11.618;2023-02-15T09:09:21;2.50;;;1.35;;
25915;SDS011;13719;48.188;11.618;2023-02-15T09:11:50;0.82;;;0.73;;
25915;SDS011;13719;48.188;11.618;2023-02-15T09:14:24;1.30;;;0.82;;
25915;SDS011;13719;48.188;11.618;2023-02-15T09:16:53;1.13;;;1.00;;
25915;SDS011;13719;48.188;11.618;2023-02-15T09:19:22;1.52;;;0.90;;
25915;SDS011;13719;48.188;11.618;2023-02-15T09:21:51;6.32;;;2.10;;
25915;SDS011;13719;48.188;11.618;2023-02-15T09:24:21;1.63;;;1.20;;
25915;SDS011;13719;48.188;11.618;2023-02-15T09:26:50;1.45;;;1.20;;
25915;SDS011;13719;48.188;11.618;2023-02-15T09:29:18;2.20;;;1.52;;
25915;SDS011;13719;48.188;11.618;2023-02-15T09:31:47;1.98;;;1.85;;
25915;SDS011;13719;48.188;11.618;2023-02-15T09:34:18;1.25;;;1.15;;
25915;SDS011;13719;48.188;11.618;2023-02-15T09:36:47;1.98;;;1.88;;
25915;SDS011;13719;48.188;11.618;2023-02-15T09:39:16;2.45;;;2.08;;
25915;SDS011;13719;48.188;11.618;2023-02-15T09:44:41;0.75;;;0.75;;
25915;SDS011;13719;48.188;11.618;2023-02-15T09:47:22;4.05;;;1.90;;
25915;SDS011;13719;48.188;11.618;2023-02-15T09:49:55;0.82;;;0.82;;
25915;SDS011;13719;48.188;11.618;2023-02-15T09:52:30;2.22;;;2.03;;
25915;SDS011;13719;48.188;11.618;2023-02-15T09:55:06;1.42;;;1.33;;
25915;SDS011;13719;48.188;11.618;2023-02-15T10:00:09;6.78;;;0.70;;
25915;SDS011;13719;48.188;11.618;2023-02-15T10:02:46;4.53;;;2.35;;
25915;SDS011;13719;48.188;11.618;2023-02-15T10:05:21;1.58;;;1.35;;
25915;SDS011;13719;48.188;11.618;2023-02-15T10:07:58;2.75;;;2.17;;
25915;SDS011;13719;48.188;11.618;2023-02-15T10:10:31;1.77;;;1.67;;
25915;SDS011;13719;48.188;11.618;2023-02-15T10:13:13;4.45;;;2.80;;
25915;SDS011;13719;48.188;11.618;2023-02-15T10:15:53;4.85;;;1.63;;
25915;SDS011;13719;48.188;11.618;2023-02-15T10:18:32;6.10;;;2.22;;
25915;SDS011;13719;48.188;11.618;2023-02-15T10:21:04;1.77;;;1.65;;
25915;SDS011;13719;48.188;11.618;2023-02-15T10:23:40;3.13;;;1.92;;
25915;SDS011;13719;48.188;11.618;2023-02-15T10:26:12;5.78;;;3.22;;
25915;SDS011;13719;48.188;11.618;2023-02-15T10:28:45;8.98;;;2.90;;
25915;SDS011;13719;48.188;11.618;2023-02-15T10:31:21;6.05;;;2.80;;
25915;SDS011;13719;48.188;11.618;2023-02-15T10:33:54;3.92;;;2.40;;
25915;SDS011;13719;48.188;11.618;2023-02-15T10:36:29;6.78;;;2.28;;
25915;SDS011;13719;48.188;11.618;2023-02-15T10:39:02;2.50;;;2.08;;
25915;SDS011;13719;48.188;11.618;2023-02-15T10:41:34;5.80;;;3.25;;
25915;SDS011;13719;48.188;11.618;2023-02-15T10:44:10;2.93;;;2.63;;
25915;SDS011;13719;48.188;11.618;2023-02-15T10:46:53;5.18;;;3.38;;
25915;SDS011;13719;48.188;11.618;2023-02-15T10:49:26;5.88;;;3.00;;
25915;SDS011;13719;48.188;11.618;2023-02-15T10:52:02;6.97;;;2.35;;
25915;SDS011;13719;48.188;11.618;2023-02-15T10:54:35;4.55;;;3.15;;
25915;SDS011;13719;48.188;11.618;2023-02-15T10:57:08;4.72;;;3.35;;
25915;SDS011;13719;48.188;11.618;2023-02-15T10:59:48;1.65;;;1.55;;
25915;SDS011;13719;48.188;11.618;2023-02-15T11:02:23;3.03;;;2.05;;
25915;SDS011;13719;48.188;11.618;2023-02-15T11:04:55;5.20;;;2.33;;
25915;SDS011;13719;48.188;11.618;2023-02-15T11:07:27;8.85;;;4.15;;
25915;SDS011;13719;48.188;11.618;2023-02-15T11:09:56;5.93;;;2.40;;
25915;SDS011;13719;48.188;11.618;2023-02-15T11:12:28;4.20;;;2.83;;
25915;SDS011;13719;48.188;11.618;2023-02-15T11:14:58;5.60;;;3.00;;
25915;SDS011;13719;48.188;11.618;2023-02-15T11:17:30;7.72;;;2.65;;
25915;SDS011;13719;48.188;11.618;2023-02-15T11:20:04;7.53;;;2.83;;
25915;SDS011;13719;48.188;11.618;2023-02-15T11:22:35;3.35;;;2.78;;
25915;SDS011;13719;48.188;11.618;2023-02-15T11:25:05;6.47;;;2.33;;
25915;SDS011;13719;48.188;11.618;2023-02-15T11:27:42;3.75;;;2.05;;
25915;SDS011;13719;48.188;11.618;2023-02-15T11:30:13;3.50;;;2.17;;
25915;SDS011;13719;48.188;11.618;2023-02-15T11:32:44;3.17;;;2.50;;
25915;SDS011;13719;48.188;11.618;2023-02-15T11:35:18;10.50;;;3.45;;
25915;SDS011;13719;48.188;11.618;2023-02-15T11:37:49;12.40;;;3.08;;
25915;SDS011;13719;48.188;11.618;2023-02-15T11:40:20;3.53;;;2.97;;
25915;SDS011;13719;48.188;11.618;2023-02-15T11:42:51;7.57;;;4.43;;
25915;SDS011;13719;48.188;11.618;2023-02-15T11:45:21;12.32;;;3.78;;
25915;SDS011;13719;48.188;11.618;2023-02-15T11:54:34;2.50;;;1.85;;
25915;SDS011;13719;48.188;11.618;2023-02-15T11:57:10;7.32;;;2.05;;
25915;SDS011;13719;48.188;11.618;2023-02-15T11:59:40;3.55;;;2.42;;
25915;SDS011;13719;48.188;11.618;2023-02-15T12:02:13;8.48;;;3.47;;
25915;SDS011;13719;48.188;11.618;2023-02-15T12:04:44;7.35;;;2.60;;
25915;SDS011;13719;48.188;11.618;2023-02-15T12:07:17;9.70;;;3.25;;
25915;SDS011;13719;48.188;11.618;2023-02-15T12:09:52;8.55;;;2.92;;
25915;SDS011;13719;48.188;11.618;2023-02-15T12:12:23;6.55;;;3.63;;
25915;SDS011;13719;48.188;11.618;2023-02-15T12:14:52;10.88;;;4.65;;
25915;SDS011;13719;48.188;11.618;2023-02-15T12:17:22;6.38;;;3.63;;
25915;SDS011;13719;48.188;11.618;2023-02-15T12:19:51;7.07;;;3.97;;
25915;SDS011;13719;48.188;11.618;2023-02-15T12:22:21;16.70;;;3.65;;
25915;SDS011;13719;48.188;11.618;2023-02-15T12:24:52;8.63;;;3.03;;
25915;SDS011;13719;48.188;11.618;2023-02-15T12:27:21;6.50;;;2.78;;
25915;SDS011;13719;48.188;11.618;2023-02-15T12:29:50;11.85;;;3.70;;
25915;SDS011;13719;48.188;11.618;2023-02-15T12:32:22;4.93;;;3.35;;
25915;SDS011;13719;48.188;11.618;2023-02-15T12:34:52;8.10;;;2.60;;
25915;SDS011;13719;48.188;11.618;2023-02-15T12:37:27;4.28;;;1.88;;
25915;SDS011;13719;48.188;11.618;2023-02-15T12:39:59;5.97;;;3.33;;
25915;SDS011;13719;48.188;11.618;2023-02-15T12:42:40;9.98;;;4.25;;
25915;SDS011;13719;48.188;11.618;2023-02-15T12:45:19;10.38;;;2.67;;
25915;SDS011;13719;48.188;11.618;2023-02-15T12:47:48;9.40;;;3.67;;
25915;SDS011;13719;48.188;11.618;2023-02-15T12:50:35;7.75;;;2.80;;
25915;SDS011;13719;48.188;11.618;2023-02-15T12:53:06;10.02;;;4.00;;
25915;SDS011;13719;48.188;11.618;2023-02-15T12:55:36;6.93;;;2.42;;
25915;SDS011;13719;48.188;11.618;2023-02-15T12:58:15;11.60;;;4.30;;
25915;SDS011;13719;48.188;11.618;2023-02-15T13:00:47;7.38;;;3.88;;
25915;SDS011;13719;48.188;11.618;2023-02-15T13:03:16;6.28;;;2.58;;
25915;SDS011;13719;48.188;11.618;2023-02-15T13:05:45;8.95;;;3.78;;
25915;SDS011;13719;48.188;11.618;2023-02-15T13:08:15;9.02;;;3.88;;
25915;SDS011;13719;48.188;11.618;2023-02-15T13:14:15;6.13;;;3.15;;
25915;SDS011;13719;48.188;11.618;2023-02-15T13:16:45;8.23;;;2.88;;
25915;SDS011;13719;48.188;11.618;2023-02-15T13:26:04;4.45;;;2.75;;
25915;SDS011;13719;48.188;11.618;2023-02-15T13:28:34;7.38;;;3.60;;
25915;SDS011;13719;48.188;11.618;2023-02-15T13:31:07;3.25;;;2.70;;
25915;SDS011;13719;48.188;11.618;2023-02-15T13:33:40;3.50;;;1.75;;
25915;SDS011;13719;48.188;11.618;2023-02-15T13:36:12;6.18;;;3.00;;
25915;SDS011;13719;48.188;11.618;2023-02-15T13:38:46;4.88;;;2.13;;
25915;SDS011;13719;48.188;11.618;2023-02-15T13:41:15;5.68;;;2.70;;
25915;SDS011;13719;48.188;11.618;2023-02-15T13:43:47;4.90;;;3.15;;
25915;SDS011;13719;48.188;11.618;2023-02-15T13:46:26;7.63;;;3.10;;
25915;SDS011;13719;48.188;11.618;2023-02-15T13:49:02;15.75;;;4.57;;
25915;SDS011;13719;48.188;11.618;2023-02-15T13:51:36;9.15;;;4.22;;
25915;SDS011;13719;48.188;11.618;2023-02-15T13:54:24;6.55;;;3.92;;
25915;SDS011;13719;48.188;11.618;2023-02-15T13:56:58;8.65;;;3.45;;
25915;SDS011;13719;48.188;11.618;2023-02-15T13:59:31;15.02;;;4.15;;
25915;SDS011;13719;48.188;11.618;2023-02-15T14:02:11;3.78;;;2.83;;
25915;SDS011;13719;48.188;11.618;2023-02-15T14:04:49;7.80;;;3.65;;
25915;SDS011;13719;48.188;11.618;2023-02-15T14:07:25;8.50;;;2.50;;
25915;SDS011;13719;48.188;11.618;2023-02-15T14:09:59;6.05;;;3.22;;
25915;SDS011;13719;48.188;11.618;2023-02-15T14:15:23;3.78;;;2.63;;
25915;SDS011;13719;48.188;11.618;2023-02-15T14:17:58;6.22;;;3.08;;
25915;SDS011;13719;48.188;11.618;2023-02-15T14:20:35;7.78;;;2.47;;
25915;SDS011;13719;48.188;11.618;2023-02-15T14:23:06;5.80;;;2.03;;
25915;SDS011;13719;48.188;11.618;2023-02-15T14:25:40;7.47;;;3.67;;
25915;SDS011;13719;48.188;11.618;2023-02-15T14:28:11;7.13;;;3.15;;
25915;SDS011;13719;48.188;11.618;2023-02-15T14:30:42;6.20;;;2.53;;
25915;SDS011;13719;48.188;11.618;2023-02-15T14:33:20;6.10;;;2.67;;
25915;SDS011;13719;48.188;11.618;2023-02-15T14:35:51;11.00;;;3.25;;
25915;SDS011;13719;48.188;11.618;2023-02-15T14:38:23;6.68;;;3.58;;
25915;SDS011;13719;48.188;11.618;2023-02-15T14:41:11;8.27;;;2.83;;
25915;SDS011;13719;48.188;11.618;2023-02-15T14:43:46;13.95;;;4.28;;
25915;SDS011;13719;48.188;11.618;2023-02-15T14:46:18;10.95;;;3.90;;
25915;SDS011;13719;48.188;11.618;2023-02-15T14:48:50;12.00;;;4.40;;
25915;SDS011;13719;48.188;11.618;2023-02-15T14:54:09;8.82;;;2.38;;
25915;SDS011;13719;48.188;11.618;2023-02-15T14:56:40;7.60;;;4.15;;
25915;SDS011;13719;48.188;11.618;2023-02-15T14:59:14;7.22;;;2.22;;
25915;SDS011;13719;48.188;11.618;2023-02-15T15:01:50;6.20;;;4.32;;
25915;SDS011;13719;48.188;11.618;2023-02-15T15:04:25;4.28;;;2.00;;
25915;SDS011;13719;48.188;11.618;2023-02-15T15:06:59;7.85;;;2.92;;
25915;SDS011;13719;48.188;11.618;2023-02-15T15:09:29;7.60;;;3.22;;
25915;SDS011;13719;48.188;11.618;2023-02-15T15:12:12;10.02;;;3.53;;
25915;SDS011;13719;48.188;11.618;2023-02-15T15:14:41;12.00;;;3.75;;
25915;SDS011;13719;48.188;11.618;2023-02-15T15:17:11;10.38;;;2.75;;
25915;SDS011;13719;48.188;11.618;2023-02-15T15:22:35;14.00;;;2.80;;
25915;SDS011;13719;48.188;11.618;2023-02-15T15:25:07;4.95;;;3.03;;
25915;SDS011;13719;48.188;11.618;2023-02-15T15:27:37;6.88;;;3.22;;
25915;SDS011;13719;48.188;11.618;2023-02-15T15:32:54;3.53;;;2.65;;
25915;SDS011;13719;48.188;11.618;2023-02-15T15:35:27;8.82;;;3.95;;
25915;SDS011;13719;48.188;11.618;2023-02-15T15:38:05;8.48;;;3.40;;
25915;SDS011;13719;48.188;11.618;2023-02-15T15:41:00;3.70;;;2.88;;